Flight Track Log - Related Links

Times and Time Zones

All times are in EDT time to prevent confusion due to time zone crossing. See the UAL1021 flight status page for this flight to view local times or setup timezone preferences in your user account.

Time Position Orientation Groundspeed Altitude Reporting Facility
EDT Latitude Longitude Course Direction KTS MPH feet Rate Location/Type
Wed 06:37:08 PM 40.6500 -74.1833 214° Southwest 182 209 1,300  Level New York TRACON
Wed 06:38:40 PM 40.5836 -74.2414 214° Southwest 212 244 4,000 1,843 Climbing New York Center
Wed 06:39:41 PM 40.5183 -74.2628 194° South 223 257 6,000 1,008 Climbing New York Center
Wed 06:40:39 PM 40.4506 -74.2292 159° South 242 278 6,000  Level New York Center
Wed 06:41:39 PM 40.3889 -74.1989 159° South 260 299 6,000 250 Level New York Center
Wed 06:42:39 PM 40.3389 -74.1256 132° Southeast 253 291 6,500 1,041 Climbing New York Center
Wed 06:43:40 PM 40.2994 -74.0531 125° Southeast 259 298 8,100 1,765 Climbing New York Center
Wed 06:44:38 PM 40.2322 -74.0689 190° South 219 252 10,000 1,300 Climbing New York Center
Wed 06:45:40 PM 40.2172 -74.1522 257° West 201 231 10,700 976 Climbing New York Center
Wed 06:46:41 PM 40.2803 -74.2125 324° Northwest 209 241 12,000 1,261 Climbing New York Center
Wed 06:47:39 PM 40.3336 -74.1636 35° Northeast 183 211 13,200 1,576 Climbing New York Center
Wed 06:48:39 PM 40.2881 -74.0797 125° Southeast 174 200 15,100 1,488 Climbing New York Center
Wed 06:49:40 PM 40.2183 -74.1169 202° Southwest 195 224 16,200 942 Climbing New York Center
Wed 06:50:40 PM 40.1228 -74.1803 207° Southwest 315 362 17,000 1,190 Climbing New York Center
Wed 06:51:41 PM 40.0408 -74.2686 220° Southwest 370 426 18,600 1,565 Climbing New York Center
Wed 06:54:07 PM 39.8458 -74.4889 221° Southwest 393 452 22,400 1,362 Climbing Washington Center
Wed 06:55:08 PM 39.7594 -74.5900 222° Southwest 406 467 23,300 1,082 Climbing Washington Center
Wed 06:56:09 PM 39.6725 -74.6911 222° Southwest 413 475 24,600 1,210 Climbing Washington Center
Wed 06:57:07 PM 39.5817 -74.7919 221° Southwest 418 481 25,700 958 Climbing Washington Center
Wed 06:58:08 PM 39.4906 -74.8978 222° Southwest 429 494 26,500 843 Climbing Washington Center
Wed 06:59:08 PM 39.3975 -75.0033 221° Southwest 440 506 27,400 843 Climbing Washington Center
Wed 07:00:09 PM 39.3000 -75.1033 218° Southwest 446 513 28,200 807 Climbing Washington Center
Wed 07:01:07 PM 39.1711 -75.1686 201° Southwest 445 512 29,000 915 Climbing Washington Center
Wed 07:02:07 PM 39.0564 -75.2147 197° South 469 540 30,000 893 Climbing Washington Center
Wed 07:03:08 PM 38.9253 -75.2714 206° Southwest 474 545 30,800 744 Climbing Washington Center
Wed 07:04:08 PM 38.8025 -75.3225 198° South 474 545 31,500 595 Climbing Washington Center
Wed 07:05:09 PM 38.6775 -75.3711 197° South 474 545 32,000 248 Climbing Washington Center
Wed 07:06:09 PM 38.5672 -75.4564 211° Southwest 469 540 32,000  Level Washington Center
Wed 07:07:07 PM 38.4567 -75.5439 212° Southwest 463 533 32,000  Level Washington Center
Wed 07:08:07 PM 38.3525 -75.6342 214° Southwest 468 539 32,000  Level Washington Center
Wed 07:09:07 PM 38.2564 -75.7186 215° Southwest 468 539 32,000  Level Washington Center
Wed 07:10:09 PM 38.1542 -75.8161 217° Southwest 468 539 32,000 99 Level Washington Center
Wed 07:11:08 PM 38.0517 -75.9161 218° Southwest 468 539 32,200 400 Climbing Washington Center
Wed 07:12:09 PM 37.9492 -76.0158 218° Southwest 468 539 32,800 655 Climbing Washington Center
Wed 07:13:07 PM 37.8406 -76.1097 214° Southwest 468 539 33,500 610 Climbing Washington Center
Wed 07:14:07 PM 37.7172 -76.1642 199° South 465 535 34,000 248 Climbing Washington Center
Wed 07:15:08 PM 37.5917 -76.2156 198° South 470 541 34,000  Level Washington Center
Wed 07:16:08 PM 37.4664 -76.2694 199° South 476 548 34,000  Level Washington Center
Wed 07:17:09 PM 37.3389 -76.3233 199° South 482 555 34,000  Level Washington Center
Wed 07:18:09 PM 37.2111 -76.3769 198° South 487 560 34,000  Level Washington Center
Wed 07:19:07 PM 37.0856 -76.4303 199° South 482 555 34,000  Level Washington Center
Wed 07:20:07 PM 36.9561 -76.4756 196° South 482 555 34,000  Level Washington Center
Wed 07:21:08 PM 36.8242 -76.5131 193° South 482 555 34,000  Level Washington Center
Wed 07:22:08 PM 36.6925 -76.5503 193° South 482 555 34,000  Level Washington Center
Wed 07:23:09 PM 36.5589 -76.5875 193° South 488 562 34,000  Level Washington Center
Wed 07:24:09 PM 36.4269 -76.6219 192° South 488 562 34,000  Level Washington Center
Wed 07:25:08 PM 36.2953 -76.6564 192° South 488 562 34,000  Level Washington Center
Wed 07:26:09 PM 36.1636 -76.6881 191° South 488 562 34,000 -50 Level Washington Center
Wed 07:27:09 PM 36.0275 -76.7222 191° South 488 562 33,900 -51 Descending Washington Center
Wed 07:28:07 PM 35.8939 -76.7561 192° South 488 562 33,900 50 Level Washington Center
Wed 07:29:08 PM 35.7600 -76.7900 192° South 488 562 34,000 50 Climbing Washington Center
Wed 07:30:08 PM 35.6197 -76.8289 193° South 488 562 34,000  Level Washington Center
Wed 07:31:08 PM 35.4858 -76.8625 192° South 483 556 34,000  Level Washington Center
Wed 07:32:08 PM 35.3478 -76.8983 192° South 491 565 34,000  Level Washington Center
Wed 07:33:09 PM 35.2139 -76.9319 192° South 497 572 34,000 -50 Level Washington Center
Wed 07:34:09 PM 35.0944 -76.9653 193° South 492 566 33,900  Descending Washington Center
Wed 07:35:08 PM 34.9606 -77.0036 193° South 492 566 34,000 51 Climbing Washington Center
Wed 07:36:07 PM 34.8119 -77.0364 190° South 492 566 34,000  Level Washington Center
Wed 07:37:07 PM 34.6781 -77.0719 192° South 492 566 34,000  Level Washington Center
Wed 07:38:08 PM 34.5419 -77.1047 191° South 492 566 34,000  Level Washington Center
Wed 07:39:09 PM 34.4058 -77.1378 191° South 492 566 34,000  Level Washington Center
Wed 07:40:09 PM 34.2678 -77.1703 191° South 498 573 34,000  Level Washington Center
Wed 07:41:07 PM 34.1297 -77.2078 193° South 503 579 34,000  Level Washington Center
Wed 07:42:09 PM 33.9914 -77.2400 191° South 508 585 34,000  Level Washington Center
Wed 07:45:26 PM 33.5497 -77.3503 192° South 513 590 34,000  Level Jacksonville Center
Wed 07:46:26 PM 33.4156 -77.3811 191° South 505 581 34,000  Level Jacksonville Center
Wed 07:47:26 PM 33.2772 -77.4169 192° South 500 575 34,000 -50 Level Jacksonville Center
Wed 07:48:26 PM 33.1453 -77.4500 192° South 500 575 33,900  Descending Jacksonville Center
Wed 07:49:26 PM 33.0111 -77.4828 192° South 500 575 34,000 50 Climbing Jacksonville Center
Wed 07:50:26 PM 32.8767 -77.5133 191° South 500 575 34,000  Level Jacksonville Center
Wed 07:51:26 PM 32.7425 -77.5483 192° South 505 581 34,000 -50 Level Jacksonville Center
Wed 07:52:26 PM 32.6083 -77.5811 192° South 505 581 33,900  Descending Jacksonville Center
Wed 07:53:26 PM 32.4739 -77.6111 191° South 500 575 34,000 50 Climbing Jacksonville Center
Wed 07:54:26 PM 32.3392 -77.6386 190° South 500 575 34,000  Level Jacksonville Center
Wed 07:55:26 PM 32.2053 -77.6756 193° South 500 575 34,000  Level Jacksonville Center
Wed 07:56:26 PM 32.0728 -77.7053 191° South 500 575 34,000 -50 Level Jacksonville Center
Wed 07:57:26 PM 31.9383 -77.7347 191° South 505 581 33,900  Descending Jacksonville Center
Wed 07:58:26 PM 31.8042 -77.7742 194° South 505 581 34,000  Climbing Jacksonville Center
Wed 07:59:26 PM 31.6719 -77.8033 191° South 500 575 33,900  Descending Jacksonville Center
Wed 08:00:26 PM 31.5372 -77.8303 190° South 500 575 34,000 50 Climbing Jacksonville Center
Wed 08:01:26 PM 31.4047 -77.8544 189° South 495 570 34,000  Level Jacksonville Center
Wed 08:02:26 PM 31.2725 -77.8908 193° South 495 570 34,000  Level Jacksonville Center
Wed 08:03:26 PM 31.1422 -77.9194 191° South 495 570 34,000  Level Jacksonville Center
Wed 08:04:26 PM 31.0097 -77.9508 191° South 490 564 34,000  Level Jacksonville Center
Wed 08:05:26 PM 30.8653 -77.9947 195° South 484 557 34,000  Level Jacksonville Center
Wed 08:06:26 PM 30.7433 -78.0250 192° South 469 540 34,000  Level Jacksonville Center
Wed 08:07:26 PM 30.6131 -78.0533 191° South 473 544 34,000 -33 Level Jacksonville Center
Wed 08:09:30 PM 30.3561 -78.1106 191° South 463 533 33,900  Descending Miami Center
Wed 08:10:30 PM 30.2267 -78.1281 187° South 473 544 34,000 50 Climbing Miami Center
Wed 08:11:30 PM 30.0931 -78.1506 188° South 478 550 34,000  Level Miami Center
Wed 08:12:30 PM 29.9719 -78.1803 192° South 474 545 34,000 -50 Level Miami Center
Wed 08:13:30 PM 29.8364 -78.1953 185° South 474 545 33,900 -50 Descending Miami Center
Wed 08:14:30 PM 29.7047 -78.2175 188° South 474 545 33,900 50 Level Miami Center
Wed 08:15:30 PM 29.5772 -78.2375 188° South 471 542 34,000  Climbing Miami Center
Wed 08:16:30 PM 29.4497 -78.2597 189° South 478 550 33,900  Descending Miami Center
Wed 08:17:30 PM 29.3225 -78.2794 188° South 472 543 34,000 50 Climbing Miami Center
Wed 08:18:30 PM 29.1886 -78.2944 186° South 467 537 34,000  Level Miami Center
Wed 08:19:30 PM 29.0611 -78.3167 189° South 467 537 34,000  Level Miami Center
Wed 08:20:30 PM 28.9358 -78.3386 189° South 466 536 34,000 -50 Level Miami Center
Wed 08:21:30 PM 28.8064 -78.3558 187° South 472 543 33,900 -50 Descending Miami Center
Wed 08:22:30 PM 28.6808 -78.3778 189° South 472 543 33,900 50 Level Miami Center
Wed 08:23:30 PM 28.5469 -78.3950 186° South 470 541 34,000  Climbing Miami Center
Wed 08:24:30 PM 28.4217 -78.4144 188° South 470 541 33,900 -50 Descending Miami Center
Wed 08:25:30 PM 28.2919 -78.4364 188° South 470 541 33,900 50 Level Miami Center
Wed 08:26:30 PM 28.1622 -78.4556 187° South 470 541 34,000 50 Climbing Miami Center
Wed 08:27:30 PM 28.0306 -78.4750 187° South 470 541 34,000  Level Miami Center
Wed 08:28:30 PM 27.8989 -78.4967 188° South 470 541 34,000 -50 Level Miami Center
Wed 08:29:30 PM 27.7711 -78.5158 188° South 470 541 33,900  Descending Miami Center
Wed 08:30:30 PM 27.6436 -78.5353 188° South 464 534 34,000 50 Climbing Miami Center
Wed 08:31:30 PM 27.5139 -78.5567 188° South 464 534 34,000  Level Miami Center
Wed 08:32:30 PM 27.3736 -78.5756 187° South 469 540 34,000  Level Miami Center
Wed 08:33:30 PM 27.2461 -78.5947 188° South 469 540 34,000 -50 Level Miami Center
Wed 08:34:30 PM 27.1183 -78.6161 188° South 464 534 33,900 -50 Descending Miami Center
Wed 08:35:30 PM 26.9867 -78.6375 188° South 469 540 33,900 50 Level Miami Center
Wed 08:36:30 PM 26.8569 -78.6567 188° South 469 540 34,000 50 Climbing Miami Center
Wed 08:37:30 PM 26.7356 -78.6733 187° South 464 534 34,000 -50 Level Miami Center
Wed 08:38:30 PM 26.6203 -78.6900 187° South 469 540 33,900  Descending Miami Center
Wed 08:39:30 PM 26.4906 -78.7089 187° South 474 545 34,000 50 Climbing Miami Center
Wed 08:40:30 PM 26.3608 -78.7278 187° South 474 545 34,000  Level Miami Center
Wed 08:41:30 PM 26.2247 -78.7442 186° South 474 545 34,000  Level Miami Center
Wed 08:42:30 PM 26.1014 -78.7656 189° South 474 545 34,000  Level Miami Center
Wed 08:43:30 PM 25.9672 -78.7911 190° South 484 557 34,000 150 Level Miami Center
Wed 08:44:30 PM 25.8417 -78.8075 187° South 484 557 34,300 500 Climbing Miami Center
Wed 08:45:30 PM 25.7078 -78.8283 188° South 478 550 35,000 350 Climbing Miami Center
Wed 08:46:30 PM 25.5842 -78.8447 187° South 470 541 35,000  Level Miami Center
Wed 08:47:30 PM 25.4586 -78.8636 188° South 464 534 35,000  Level Miami Center
Wed 08:48:30 PM 25.3308 -78.8819 187° South 464 534 35,000  Level Miami Center
Wed 08:49:30 PM 25.2053 -78.9031 189° South 464 534 35,000  Level Miami Center
Wed 08:50:30 PM 25.0753 -78.9192 186° South 464 534 35,000  Level Miami Center
Wed 08:51:30 PM 24.9456 -78.9375 187° South 465 535 35,000  Level Miami Center
Wed 08:52:30 PM 24.8178 -78.9514 186° South 457 526 35,000  Level Miami Center
Wed 08:53:30 PM 24.6881 -78.9700 187° South 465 535 35,000  Level Miami Center
Wed 08:54:30 PM 24.5667 -78.9906 189° South 471 542 35,000  Level Miami Center
Wed 08:55:30 PM 24.4411 -79.0067 187° South 471 542 35,000  Level Miami Center
Wed 08:56:30 PM 24.3217 -79.0297 190° South 464 534 35,000  Level Miami Center
Wed 08:57:30 PM 24.1917 -79.0436 186° South 463 533 35,000  Level Miami Center
Wed 08:58:30 PM 24.0619 -79.0594 186° South 465 535 35,000  Level Miami Center
Wed 08:59:30 PM 23.9408 -79.0664 183° South 460 529 35,000  Level Miami Center
Wed 09:01:00 PM 23.7581 -79.0410 173° South  Level FlightAware Approximate
Wed 09:08:00 PM 22.9052 -78.9233 173° South  Level FlightAware Approximate
Wed 09:09:00 PM 22.7834 -78.9066 173° South  Level FlightAware Approximate
Wed 09:10:00 PM 22.6615 -78.8899 173° South  Level FlightAware Approximate
Wed 09:11:00 PM 22.5397 -78.8733 173° South  Level FlightAware Approximate
Wed 09:12:00 PM 22.4178 -78.8567 173° South  Level FlightAware Approximate
Wed 09:13:00 PM 22.2960 -78.8401 173° South  Level FlightAware Approximate
Wed 09:14:00 PM 22.1741 -78.8236 173° South  Level FlightAware Approximate
Wed 09:15:00 PM 22.0523 -78.8071 173° South  Level FlightAware Approximate
Wed 09:16:00 PM 21.9301 -78.8058 184° South  Level FlightAware Approximate
Wed 09:17:00 PM 21.8077 -78.8160 184° South  Level FlightAware Approximate
Wed 09:18:00 PM 21.6852 -78.8262 184° South  Level FlightAware Approximate
Wed 09:19:00 PM 21.5628 -78.8364 184° South  Level FlightAware Approximate
Wed 09:20:00 PM 21.4403 -78.8466 184° South  Level FlightAware Approximate
Wed 09:21:00 PM 21.3178 -78.8546 183° South  Level FlightAware Approximate
Wed 09:22:00 PM 21.1951 -78.8614 183° South  Level FlightAware Approximate
Wed 09:23:00 PM 21.0725 -78.8682 183° South  Level FlightAware Approximate
Wed 09:24:00 PM 20.9498 -78.8750 183° South  Level FlightAware Approximate
Wed 09:25:00 PM 20.8272 -78.8818 183° South  Level FlightAware Approximate
Wed 09:26:00 PM 20.7045 -78.8893 183° South  Level FlightAware Approximate
Wed 09:27:00 PM 20.5819 -78.8970 183° South  Level FlightAware Approximate
Wed 09:28:00 PM 20.4594 -78.9047 183° South  Level FlightAware Approximate
Wed 09:29:00 PM 20.3368 -78.9124 183° South  Level FlightAware Approximate
Wed 09:30:00 PM 20.2141 -78.9200 183° South  Level FlightAware Approximate
Wed 09:31:00 PM 20.0916 -78.9276 183° South  Level FlightAware Approximate
Wed 09:32:00 PM 19.9689 -78.9351 183° South  Level FlightAware Approximate
Wed 09:33:00 PM 19.8463 -78.9423 183° South  Level FlightAware Approximate
Wed 09:34:00 PM 19.7237 -78.9494 183° South  Level FlightAware Approximate
Wed 09:35:00 PM 19.6010 -78.9565 183° South  Level FlightAware Approximate
Wed 09:36:00 PM 19.4784 -78.9636 183° South  Level FlightAware Approximate
Wed 09:37:00 PM 19.3558 -78.9707 183° South  Level FlightAware Approximate
Wed 09:38:00 PM 19.2332 -78.9778 183° South  Level FlightAware Approximate
Wed 09:39:00 PM 19.1105 -78.9849 183° South  Level FlightAware Approximate
Wed 09:40:00 PM 18.9879 -78.9920 183° South  Level FlightAware Approximate
Wed 09:41:00 PM 18.8653 -78.9990 183° South  Level FlightAware Approximate
Wed 09:42:00 PM 18.7426 -79.0061 183° South  Level FlightAware Approximate
Wed 09:43:00 PM 18.6200 -79.0131 183° South  Level FlightAware Approximate
Wed 09:44:00 PM 18.4974 -79.0202 183° South  Level FlightAware Approximate
Wed 09:45:00 PM 18.3748 -79.0272 183° South  Level FlightAware Approximate
Wed 09:46:00 PM 18.2521 -79.0342 183° South  Level FlightAware Approximate
Wed 09:47:00 PM 18.1295 -79.0412 183° South  Level FlightAware Approximate
Wed 09:48:00 PM 18.0069 -79.0482 183° South  Level FlightAware Approximate
Wed 09:49:00 PM 17.8842 -79.0552 183° South  Level FlightAware Approximate
Wed 09:50:00 PM 17.7616 -79.0621 183° South  Level FlightAware Approximate
Wed 09:51:00 PM 17.6390 -79.0691 183° South  Level FlightAware Approximate
Wed 09:52:00 PM 17.5163 -79.0760 183° South  Level FlightAware Approximate
Wed 09:53:00 PM 17.3937 -79.0830 183° South  Level FlightAware Approximate
Wed 09:54:00 PM 17.2711 -79.0899 183° South  Level FlightAware Approximate
Wed 09:55:00 PM 17.1485 -79.0968 183° South  Level FlightAware Approximate
Wed 09:56:00 PM 17.0258 -79.1037 183° South  Level FlightAware Approximate
Wed 09:57:00 PM 16.9032 -79.1106 183° South  Level FlightAware Approximate
Wed 09:58:00 PM 16.7806 -79.1175 183° South  Level FlightAware Approximate
Wed 09:59:00 PM 16.6579 -79.1244 183° South  Level FlightAware Approximate
Wed 10:00:00 PM 16.5353 -79.1313 183° South  Level FlightAware Approximate
Wed 10:01:00 PM 16.4127 -79.1382 183° South  Level FlightAware Approximate
Wed 10:02:00 PM 16.2900 -79.1450 183° South  Level FlightAware Approximate
Wed 10:03:00 PM 16.1674 -79.1519 183° South  Level FlightAware Approximate
Wed 10:04:00 PM 16.0448 -79.1587 183° South  Level FlightAware Approximate
Wed 10:05:00 PM 15.9221 -79.1656 183° South  Level FlightAware Approximate
Wed 10:06:00 PM 15.7995 -79.1724 183° South  Level FlightAware Approximate
Wed 10:07:00 PM 15.6769 -79.1792 183° South  Level FlightAware Approximate
Wed 10:09:00 PM 40.4485 -74.2319 191° South  Level FlightAware Approximate
Wed 10:10:00 PM 40.3264 -74.2633 191° South  Level FlightAware Approximate
Wed 10:11:00 PM 40.2044 -74.2946 191° South  Level FlightAware Approximate
Wed 10:12:00 PM 40.0823 -74.3259 191° South  Level FlightAware Approximate
Wed 10:13:00 PM 39.9597 -74.3530 183° South  Level Estimated
Wed 10:14:00 PM 39.8376 -74.3832 191° South  Level FlightAware Approximate
Wed 10:15:00 PM 39.7154 -74.4133 191° South  Level FlightAware Approximate
Wed 10:16:00 PM 39.5932 -74.4432 191° South  Level FlightAware Approximate
Wed 10:17:00 PM 39.4710 -74.4731 191° South  Level FlightAware Approximate
Wed 10:18:00 PM 39.3487 -74.5029 191° South  Level FlightAware Approximate
Wed 10:19:00 PM 39.2265 -74.5325 191° South  Level FlightAware Approximate
Wed 10:20:00 PM 39.1043 -74.5621 191° South  Level FlightAware Approximate
Wed 10:21:00 PM 38.9821 -74.5915 191° South  Level FlightAware Approximate
Wed 10:22:00 PM 38.8598 -74.6208 191° South  Level FlightAware Approximate
Wed 10:23:00 PM 38.7376 -74.6501 191° South  Level FlightAware Approximate
Wed 10:24:00 PM 38.6149 -74.6760 183° South  Level Estimated
Wed 10:25:00 PM 38.4924 -74.7036 190° South  Level FlightAware Approximate
Wed 10:26:00 PM 38.3699 -74.7310 190° South  Level FlightAware Approximate
Wed 10:27:00 PM 38.2474 -74.7583 190° South  Level FlightAware Approximate
Wed 10:28:00 PM 38.1249 -74.7855 190° South  Level FlightAware Approximate
Wed 10:29:00 PM 38.0015 -74.8128 190° South  Level FlightAware Approximate
Wed 10:30:00 PM 37.8780 -74.8401 190° South  Level FlightAware Approximate
Wed 10:31:00 PM 37.7546 -74.8672 190° South  Level FlightAware Approximate
Wed 10:32:00 PM 37.6311 -74.8943 190° South  Level FlightAware Approximate
Wed 10:33:00 PM 37.5076 -74.9212 190° South  Level FlightAware Approximate
Wed 10:34:00 PM 37.3842 -74.9481 190° South  Level FlightAware Approximate
Wed 10:35:00 PM 37.2607 -74.9749 190° South  Level FlightAware Approximate
Wed 10:36:00 PM 37.1372 -75.0016 190° South  Level FlightAware Approximate
Wed 10:37:00 PM 37.0137 -75.0283 190° South  Level FlightAware Approximate
Wed 10:38:00 PM 36.8903 -75.0548 190° South  Level FlightAware Approximate
Wed 10:39:00 PM 36.7668 -75.0813 190° South  Level FlightAware Approximate
Wed 10:40:00 PM 36.6432 -75.1076 190° South  Level FlightAware Approximate
Wed 10:41:00 PM 36.5197 -75.1339 190° South  Level FlightAware Approximate
Wed 10:42:00 PM 36.3962 -75.1601 190° South  Level FlightAware Approximate
Wed 10:43:00 PM 36.2727 -75.1862 190° South  Level FlightAware Approximate
Wed 10:44:00 PM 36.1492 -75.2122 190° South  Level FlightAware Approximate
Wed 10:45:00 PM 36.0256 -75.2382 190° South  Level FlightAware Approximate
Wed 10:46:00 PM 35.9021 -75.2641 190° South  Level FlightAware Approximate
Wed 10:47:00 PM 35.7783 -75.2881 183° South  Level Estimated
Wed 10:48:00 PM 35.6548 -75.3136 190° South  Level FlightAware Approximate
Wed 10:49:00 PM 35.5312 -75.3391 190° South  Level FlightAware Approximate
Wed 10:50:00 PM 35.4074 -75.3629 186° South  Level Estimated
Wed 10:51:00 PM 35.2838 -75.3881 189° South  Level FlightAware Approximate
Wed 10:52:00 PM 35.1600 -75.4117 182° South  Level Estimated
Wed 10:53:00 PM 35.0363 -75.4365 189° South  Level FlightAware Approximate
Wed 10:54:00 PM 34.9127 -75.4613 189° South  Level FlightAware Approximate
Wed 10:55:00 PM 34.7889 -75.4847 184° South  Level Estimated
Wed 10:56:00 PM 34.6652 -75.5091 189° South  Level FlightAware Approximate
Wed 10:57:00 PM 34.5415 -75.5334 189° South  Level FlightAware Approximate
Wed 10:58:00 PM 34.4178 -75.5576 189° South  Level FlightAware Approximate
Wed 10:59:00 PM 34.2939 -75.5808 180° South  Level Estimated
Wed 11:00:00 PM 34.1701 -75.6039 184° South  Level Estimated
Wed 11:01:00 PM 34.0464 -75.6277 189° South  Level FlightAware Approximate
Wed 11:02:00 PM 33.9225 -75.6506 180° South  Level Estimated
Wed 11:03:00 PM 33.7987 -75.6735 33° Northeast  Level Estimated
Wed 11:04:00 PM 33.6748 -75.6963 37° Northeast  Level Estimated
Wed 11:05:00 PM 33.5509 -75.7190 31° Northeast  Level Estimated
Wed 11:06:00 PM 33.4271 -75.7417 31° Northeast  Level Estimated
Wed 11:07:00 PM 33.3032 -75.7643 31° Northeast  Level Estimated
Wed 11:08:00 PM 33.1793 -75.7868 31° Northeast  Level Estimated
Wed 11:09:00 PM 33.0555 -75.8093 31° Northeast  Level Estimated
Wed 11:10:00 PM 32.9316 -75.8317 31° Northeast  Level Estimated
Wed 11:11:00 PM 32.8077 -75.8540 31° Northeast  Level Estimated
Wed 11:12:00 PM 32.6838 -75.8763 31° Northeast  Level Estimated
Wed 11:13:00 PM 32.5599 -75.8986 31° Northeast  Level Estimated
Wed 11:14:00 PM 32.4360 -75.9207 31° Northeast  Level Estimated
Wed 11:15:00 PM 32.3121 -75.9428 31° Northeast  Level Estimated
Wed 11:16:00 PM 32.1882 -75.9649 31° Northeast  Level Estimated
Wed 11:17:00 PM 32.0643 -75.9868 31° Northeast  Level Estimated
Wed 11:18:00 PM 31.9404 -76.0088 31° Northeast  Level Estimated
Wed 11:19:00 PM 31.8165 -76.0306 31° Northeast  Level Estimated
Wed 11:20:00 PM 31.6925 -76.0524 31° Northeast  Level Estimated
Wed 11:21:00 PM 31.5686 -76.0742 31° Northeast  Level Estimated
Wed 11:22:00 PM 31.4447 -76.0959 31° Northeast  Level Estimated
Wed 11:23:00 PM 31.3208 -76.1175 31° Northeast  Level Estimated
Wed 11:24:00 PM 31.1968 -76.1391 31° Northeast  Level Estimated
Wed 11:25:00 PM 31.0729 -76.1606 31° Northeast  Level Estimated
Wed 11:26:00 PM 30.9489 -76.1820 31° Northeast  Level Estimated
Wed 11:27:00 PM 30.8250 -76.2035 31° Northeast  Level Estimated
Wed 11:28:00 PM 30.7010 -76.2248 31° Northeast  Level Estimated
Wed 11:29:00 PM 30.5771 -76.2461 31° Northeast  Level Estimated
Wed 11:30:00 PM 30.4531 -76.2673 31° Northeast  Level Estimated
Wed 11:31:00 PM 30.3292 -76.2885 31° Northeast  Level Estimated
Wed 11:32:00 PM 30.2052 -76.3097 31° Northeast  Level Estimated
Wed 11:33:00 PM 30.0812 -76.3307 31° Northeast  Level Estimated
Wed 11:34:00 PM 29.9573 -76.3518 31° Northeast  Level Estimated
Wed 11:35:00 PM 29.8333 -76.3727 31° Northeast  Level Estimated
Wed 11:36:00 PM 29.7093 -76.3937 31° Northeast  Level Estimated
Wed 11:37:00 PM 29.5853 -76.4145 31° Northeast  Level Estimated
Wed 11:38:00 PM 29.4614 -76.4354 31° Northeast  Level Estimated
Wed 11:39:00 PM 29.3374 -76.4561 31° Northeast  Level Estimated
Wed 11:40:00 PM 29.2134 -76.4769 31° Northeast  Level Estimated
Wed 11:41:00 PM 29.0894 -76.4975 31° Northeast  Level Estimated
Wed 11:42:00 PM 28.9654 -76.5181 31° Northeast  Level Estimated
Wed 11:43:00 PM 28.8414 -76.5387 31° Northeast  Level Estimated
Wed 11:44:00 PM 28.7174 -76.5592 31° Northeast  Level Estimated
Wed 11:45:00 PM 28.5934 -76.5797 31° Northeast  Level Estimated
Wed 11:46:00 PM 28.4694 -76.6001 31° Northeast  Level Estimated
Wed 11:47:00 PM 28.3454 -76.6205 31° Northeast  Level Estimated
Wed 11:48:00 PM 28.2213 -76.6408 31° Northeast  Level Estimated
Wed 11:49:00 PM 28.0973 -76.6611 31° Northeast  Level Estimated
Wed 11:50:00 PM 27.9733 -76.6814 31° Northeast  Level Estimated
Wed 11:51:00 PM 27.8493 -76.7016 31° Northeast  Level Estimated
Wed 11:52:00 PM 27.7253 -76.7217 31° Northeast  Level Estimated
Wed 11:53:00 PM 27.6012 -76.7418 31° Northeast  Level Estimated
Wed 11:54:00 PM 27.4772 -76.7618 31° Northeast  Level Estimated
Wed 11:55:00 PM 27.3532 -76.7819 31° Northeast  Level Estimated
Wed 11:56:00 PM 27.2291 -76.8018 31° Northeast  Level Estimated
Wed 11:57:00 PM 27.1051 -76.8217 31° Northeast  Level Estimated
Wed 11:58:00 PM 26.9811 -76.8416 31° Northeast  Level Estimated
Wed 11:59:00 PM 26.8570 -76.8614 31° Northeast  Level Estimated
Thu 12:00:00 AM 26.7330 -76.8812 31° Northeast  Level Estimated
Thu 12:01:00 AM 26.6089 -76.9010 31° Northeast  Level Estimated
Thu 12:02:00 AM 26.4848 -76.9207 31° Northeast  Level Estimated
Thu 12:03:00 AM 26.3608 -76.9403 31° Northeast  Level Estimated
Thu 12:04:00 AM 26.2367 -76.9599 31° Northeast  Level Estimated
Thu 12:05:00 AM 26.1127 -76.9795 31° Northeast  Level Estimated
Thu 12:06:00 AM 25.9886 -76.9990 31° Northeast  Level Estimated
Thu 12:07:00 AM 25.8645 -77.0185 31° Northeast  Level Estimated
Thu 12:08:00 AM 25.7405 -77.0380 31° Northeast  Level Estimated
Thu 12:09:00 AM 25.6164 -77.0574 31° Northeast  Level Estimated
Thu 12:10:00 AM 25.4923 -77.0768 31° Northeast  Level Estimated
Thu 12:11:00 AM 25.3682 -77.0961 31° Northeast  Level Estimated
Thu 12:12:00 AM 25.2442 -77.1154 31° Northeast  Level Estimated
Thu 12:13:00 AM 25.1201 -77.1346 31° Northeast  Level Estimated
Thu 12:14:00 AM 24.9960 -77.1538 31° Northeast  Level Estimated
Thu 12:15:00 AM 24.8719 -77.1730 31° Northeast  Level Estimated
Thu 12:16:00 AM 24.7478 -77.1921 31° Northeast  Level Estimated
Thu 12:17:00 AM 24.6237 -77.2112 31° Northeast  Level Estimated
Thu 12:18:00 AM 24.4996 -77.2303 31° Northeast  Level Estimated
Thu 12:19:00 AM 24.3755 -77.2493 31° Northeast  Level Estimated
Thu 12:20:00 AM 24.2514 -77.2683 31° Northeast  Level Estimated
Thu 12:21:00 AM 24.1273 -77.2872 31° Northeast  Level Estimated
Thu 12:22:00 AM 24.0032 -77.3062 31° Northeast  Level Estimated
Thu 12:23:00 AM 23.8791 -77.3250 31° Northeast  Level Estimated
Thu 12:24:00 AM 23.7550 -77.3439 31° Northeast  Level Estimated
Thu 12:25:00 AM 23.6309 -77.3627 31° Northeast  Level Estimated
Thu 12:26:00 AM 23.5068 -77.3814 31° Northeast  Level Estimated
Thu 12:27:00 AM 23.3827 -77.4002 31° Northeast  Level Estimated
Thu 12:28:00 AM 23.2585 -77.4189 31° Northeast  Level Estimated
Thu 12:29:00 AM 23.1344 -77.4375 31° Northeast  Level Estimated
Thu 12:30:00 AM 23.0103 -77.4562 31° Northeast  Level Estimated
Thu 12:31:00 AM 22.8862 -77.4747 31° Northeast  Level Estimated
Thu 12:32:00 AM 22.7621 -77.4933 31° Northeast  Level Estimated
Thu 12:33:00 AM 22.6379 -77.5118 31° Northeast  Level Estimated
Thu 12:34:00 AM 22.5138 -77.5303 31° Northeast  Level Estimated
Thu 12:35:00 AM 22.3897 -77.5488 31° Northeast  Level Estimated
Thu 12:36:00 AM 22.2655 -77.5672 31° Northeast  Level Estimated
Thu 12:37:00 AM 22.1414 -77.5856 31° Northeast  Level Estimated
Thu 12:38:00 AM 22.0172 -77.6040 31° Northeast  Level Estimated
Thu 12:39:00 AM 21.8931 -77.6223 31° Northeast  Level Estimated
Thu 12:40:00 AM 21.7690 -77.6406 31° Northeast  Level Estimated
Thu 12:41:00 AM 21.6448 -77.6588 31° Northeast  Level Estimated
Thu 12:42:00 AM 21.5207 -77.6771 31° Northeast  Level Estimated
Thu 12:43:00 AM 21.3965 -77.6953 31° Northeast  Level Estimated
Thu 12:44:00 AM 21.2724 -77.7134 31° Northeast  Level Estimated
Thu 12:45:00 AM 21.1482 -77.7316 31° Northeast  Level Estimated
Thu 12:46:00 AM 21.0240 -77.7497 31° Northeast  Level Estimated
Thu 12:47:00 AM 20.8999 -77.7678 31° Northeast  Level Estimated
Thu 12:48:00 AM 20.7757 -77.7858 31° Northeast  Level Estimated
Thu 12:49:00 AM 20.6516 -77.8038 31° Northeast  Level Estimated
Thu 12:50:00 AM 20.5274 -77.8218 31° Northeast  Level Estimated
Thu 12:51:00 AM 20.4032 -77.8398 31° Northeast  Level Estimated
Thu 12:52:00 AM 20.2791 -77.8577 31° Northeast  Level Estimated
Thu 12:53:00 AM 20.1549 -77.8756 31° Northeast  Level Estimated
Thu 12:54:00 AM 20.0307 -77.8935 31° Northeast  Level Estimated
Thu 12:55:00 AM 19.9066 -77.9113 31° Northeast  Level Estimated
Thu 12:56:00 AM 19.7824 -77.9292 31° Northeast  Level Estimated
Thu 12:57:00 AM 19.6582 -77.9470 31° Northeast  Level Estimated
Thu 12:58:00 AM 19.5340 -77.9647 31° Northeast  Level Estimated
Thu 12:59:00 AM 19.4099 -77.9825 31° Northeast  Level Estimated
Thu 01:00:00 AM 19.2857 -78.0002 31° Northeast  Level Estimated

Login

Don't have an account? Register now (free) for customized features, flight alerts, and more!